createdAt,value
2022-10-10T00:01:22.566Z,13.11
2022-10-10T00:03:50.976Z,12.34
2022-10-10T00:06:19.055Z,12.30
2022-10-10T00:08:47.014Z,12.68
2022-10-10T00:11:21.525Z,12.55
2022-10-10T00:13:49.355Z,12.68
2022-10-10T00:16:17.904Z,12.51
2022-10-10T00:18:45.787Z,12.26
2022-10-10T00:21:13.835Z,12.25
2022-10-10T00:23:42.195Z,12.50
2022-10-10T00:26:12.720Z,12.34
2022-10-10T00:28:44.334Z,12.23
2022-10-10T00:31:12.157Z,12.20
2022-10-10T00:33:39.927Z,12.45
2022-10-10T00:36:08.167Z,12.41
2022-10-10T00:38:36.497Z,12.11
2022-10-10T00:41:04.536Z,12.30
2022-10-10T00:43:33.307Z,12.37
2022-10-10T00:46:01.153Z,12.56
2022-10-10T00:48:42.743Z,12.49
2022-10-10T00:51:14.834Z,12.60
2022-10-10T00:53:51.910Z,12.27
2022-10-10T00:56:25.315Z,12.55
2022-10-10T00:58:55.635Z,12.60
2022-10-10T01:01:23.872Z,12.29
2022-10-10T01:03:51.696Z,12.50
2022-10-10T01:06:19.495Z,12.36
2022-10-10T01:08:47.717Z,12.31
2022-10-10T01:11:36.855Z,12.38
2022-10-10T01:14:09.266Z,12.31
2022-10-10T01:16:58.944Z,12.26
2022-10-10T01:19:42.894Z,12.36
2022-10-10T01:22:38.953Z,12.49
2022-10-10T01:25:40.744Z,12.56
2022-10-10T01:28:35.789Z,12.30
2022-10-10T01:31:06.385Z,12.16
2022-10-10T01:33:47.206Z,12.47
2022-10-10T01:36:28.955Z,12.12
2022-10-10T01:39:17.906Z,12.36
2022-10-10T01:41:58.494Z,12.46
2022-10-10T01:44:26.286Z,12.49
2022-10-10T01:46:54.446Z,12.49
2022-10-10T01:49:29.544Z,12.21
2022-10-10T01:52:03.594Z,12.42
2022-10-10T01:54:37.546Z,12.45
2022-10-10T01:57:15.002Z,12.33
2022-10-10T01:59:42.739Z,12.34
2022-10-10T02:02:36.915Z,12.30
2022-10-10T02:05:10.516Z,12.05
2022-10-10T02:07:43.635Z,11.99
2022-10-10T02:10:12.493Z,12.08
2022-10-10T02:12:40.755Z,12.03
2022-10-10T02:15:13.125Z,12.18
2022-10-10T02:17:43.431Z,12.56
2022-10-10T02:20:13.165Z,12.48
2022-10-10T02:22:43.535Z,12.36
2022-10-10T02:25:11.699Z,12.23
2022-10-10T02:27:50.576Z,12.01
2022-10-10T02:30:18.906Z,12.20
2022-10-10T02:32:52.698Z,12.16
2022-10-10T02:35:25.714Z,12.27
2022-10-10T02:37:54.745Z,12.16
2022-10-10T02:40:25.627Z,11.90
2022-10-10T02:42:54.431Z,12.13
2022-10-10T02:45:23.644Z,12.01
2022-10-10T02:47:52.555Z,12.05
2022-10-10T02:50:21.347Z,11.90
2022-10-10T02:52:49.748Z,11.79
2022-10-10T02:55:17.990Z,12.16
2022-10-10T02:57:45.745Z,12.37
2022-10-10T03:00:14.515Z,12.31
2022-10-10T03:02:42.287Z,11.93
2022-10-10T03:05:10.374Z,11.98
2022-10-10T03:07:38.746Z,11.84
2022-10-10T03:10:07.592Z,12.15
2022-10-10T03:12:35.786Z,12.22
2022-10-10T03:15:08.025Z,11.89
2022-10-10T03:17:39.643Z,11.87
2022-10-10T03:20:08.815Z,11.93
2022-10-10T03:22:36.584Z,11.58
2022-10-10T03:25:04.775Z,11.62
2022-10-10T03:27:33.012Z,11.84
2022-10-10T03:30:00.796Z,11.85
2022-10-10T03:32:28.670Z,11.52
2022-10-10T03:34:56.774Z,11.55
2022-10-10T03:37:24.584Z,11.61
2022-10-10T03:39:52.615Z,12.00
2022-10-10T03:42:20.744Z,11.87
2022-10-10T03:44:48.535Z,11.95
2022-10-10T03:47:16.304Z,11.84
2022-10-10T03:49:44.435Z,12.05
2022-10-10T03:52:12.176Z,11.61
2022-10-10T03:54:39.984Z,11.53
2022-10-10T03:57:08.064Z,11.90
2022-10-10T03:59:35.872Z,11.61
2022-10-10T04:02:03.725Z,11.57
2022-10-10T04:04:31.835Z,11.50
2022-10-10T04:06:59.565Z,11.66
2022-10-10T04:09:27.475Z,12.20
2022-10-10T04:11:55.555Z,11.85
2022-10-10T04:14:23.435Z,12.10
2022-10-10T04:16:51.274Z,11.93
2022-10-10T04:19:19.345Z,11.87
2022-10-10T04:21:47.204Z,11.84
2022-10-10T04:24:15.025Z,11.87
2022-10-10T04:26:43.194Z,11.80
2022-10-10T04:29:11.004Z,11.64
2022-10-10T04:31:38.864Z,11.81
2022-10-10T04:34:07.127Z,11.35
2022-10-10T04:36:34.894Z,11.91
2022-10-10T04:39:03.236Z,11.88
2022-10-10T04:41:31.266Z,11.69
2022-10-10T04:43:59.267Z,11.51
2022-10-10T04:46:27.064Z,11.48
2022-10-10T04:48:55.255Z,11.49
2022-10-10T04:51:23.135Z,11.87
2022-10-10T04:53:50.895Z,11.46
2022-10-10T04:56:19.091Z,11.35
2022-10-10T04:58:46.954Z,11.38
2022-10-10T05:01:14.857Z,11.52
2022-10-10T05:03:43.232Z,11.55
2022-10-10T05:06:11.175Z,11.69
2022-10-10T05:08:39.046Z,11.39
2022-10-10T05:11:07.192Z,11.63
2022-10-10T05:13:34.935Z,11.41
2022-10-10T05:16:02.808Z,11.64
2022-10-10T05:18:30.925Z,11.72
2022-10-10T05:21:03.395Z,11.55
2022-10-10T05:23:32.265Z,11.86
2022-10-10T05:26:00.218Z,11.56
2022-10-10T05:28:28.147Z,11.74
2022-10-10T05:30:56.407Z,11.58
2022-10-10T05:33:24.279Z,12.00
2022-10-10T05:35:52.157Z,12.38
2022-10-10T05:38:20.185Z,12.09
2022-10-10T05:40:47.982Z,12.43
2022-10-10T05:43:15.936Z,12.49
2022-10-10T05:45:44.176Z,12.55
2022-10-10T05:48:11.875Z,12.97
2022-10-10T05:50:41.097Z,13.07
2022-10-10T05:53:09.254Z,13.57
2022-10-10T05:55:37.244Z,13.97
2022-10-10T05:58:05.485Z,14.44
2022-10-10T06:00:34.639Z,15.23
2022-10-10T06:03:03.168Z,16.02
2022-10-10T06:05:30.956Z,16.49
2022-10-10T06:08:11.473Z,16.56
2022-10-10T06:10:42.925Z,16.54
2022-10-10T06:13:12.653Z,16.67
2022-10-10T06:15:40.794Z,17.12
2022-10-10T06:18:08.941Z,16.65
2022-10-10T06:20:38.265Z,16.67
2022-10-10T06:23:07.595Z,16.47
2022-10-10T06:25:40.471Z,16.54
2022-10-10T06:28:09.981Z,16.64
2022-10-10T06:30:42.934Z,15.90
2022-10-10T06:33:12.135Z,16.19
2022-10-10T06:35:43.739Z,16.40
2022-10-10T06:38:12.483Z,15.87
2022-10-10T06:40:40.846Z,16.37
2022-10-10T06:43:12.425Z,16.15
2022-10-10T06:45:49.968Z,16.01
2022-10-10T06:48:20.534Z,16.05
2022-10-10T06:51:06.747Z,16.09
2022-10-10T06:53:34.916Z,16.20
2022-10-10T06:56:03.559Z,15.90
2022-10-10T06:58:32.186Z,15.90
2022-10-10T07:01:02.098Z,15.13
2022-10-10T07:03:31.006Z,15.66
2022-10-10T07:06:00.841Z,15.32
2022-10-10T07:08:29.558Z,15.40
2022-10-10T07:10:57.802Z,15.74
2022-10-10T07:13:27.447Z,15.77
2022-10-10T07:15:55.359Z,15.78
2022-10-10T07:18:23.527Z,15.70
2022-10-10T07:20:51.646Z,15.71
2022-10-10T07:23:19.467Z,16.05
2022-10-10T07:25:47.562Z,16.17
2022-10-10T07:28:15.692Z,16.32
2022-10-10T07:30:45.956Z,16.49
2022-10-10T07:33:14.602Z,16.35
2022-10-10T07:35:42.784Z,16.61
2022-10-10T07:38:11.796Z,16.55
2022-10-10T07:40:41.435Z,16.89
2022-10-10T07:43:09.401Z,16.74
2022-10-10T07:45:37.525Z,17.53
2022-10-10T07:48:05.936Z,17.77
2022-10-10T07:50:33.850Z,17.97
2022-10-10T07:53:01.911Z,18.26
2022-10-10T07:55:30.266Z,18.00
2022-10-10T07:57:59.979Z,18.50
2022-10-10T08:00:28.094Z,18.52
2022-10-10T08:02:56.357Z,18.77
2022-10-10T08:05:24.351Z,18.90
2022-10-10T08:07:52.633Z,18.95
2022-10-10T08:10:21.158Z,19.05
2022-10-10T08:12:49.026Z,18.66
2022-10-10T08:15:17.124Z,18.99
2022-10-10T08:17:45.525Z,19.00
2022-10-10T08:20:14.461Z,19.13
2022-10-10T08:22:42.643Z,19.56
2022-10-10T08:25:11.949Z,19.84
2022-10-10T08:27:39.925Z,20.18
2022-10-10T08:30:08.106Z,20.67
2022-10-10T08:32:36.255Z,20.35
2022-10-10T08:35:05.135Z,20.86
2022-10-10T08:37:37.211Z,20.43
2022-10-10T08:40:06.615Z,20.67
2022-10-10T08:42:46.902Z,20.79
2022-10-10T08:45:26.847Z,20.87
2022-10-10T08:47:59.337Z,20.88
2022-10-10T08:50:42.306Z,20.94
2022-10-10T08:53:18.445Z,20.73
2022-10-10T08:55:46.700Z,20.90
2022-10-10T08:58:48.043Z,20.98
2022-10-10T09:01:23.841Z,21.11
2022-10-10T09:03:56.097Z,21.75
2022-10-10T09:07:01.745Z,21.80
2022-10-10T09:09:41.456Z,21.98
2022-10-10T09:12:12.638Z,22.43
2022-10-10T09:15:13.084Z,22.72
2022-10-10T09:18:03.078Z,22.48
2022-10-10T09:20:34.026Z,23.19
2022-10-10T09:23:18.006Z,23.49
2022-10-10T09:26:01.134Z,23.99
2022-10-10T09:28:59.080Z,24.70
2022-10-10T09:31:39.982Z,23.70
2022-10-10T09:34:20.805Z,23.64
2022-10-10T09:36:49.266Z,24.73
2022-10-10T09:39:23.896Z,24.51
2022-10-10T09:41:56.575Z,24.48
2022-10-10T09:44:24.887Z,24.21
2022-10-10T09:46:53.723Z,23.99
2022-10-10T09:49:22.379Z,23.71
2022-10-10T09:51:50.847Z,23.84
2022-10-10T09:54:20.409Z,24.49
2022-10-10T09:56:54.796Z,24.12
2022-10-10T09:59:45.190Z,24.65
2022-10-10T10:02:24.406Z,24.50
2022-10-10T10:04:54.117Z,24.76
2022-10-10T10:07:31.365Z,25.20
2022-10-10T10:10:04.607Z,25.46
2022-10-10T10:12:41.784Z,25.25
2022-10-10T10:15:25.586Z,24.83
2022-10-10T10:18:13.434Z,25.00
2022-10-10T10:20:43.545Z,24.97
2022-10-10T10:23:23.625Z,25.80
2022-10-10T10:26:01.482Z,26.19
2022-10-10T10:28:30.164Z,26.04
2022-10-10T10:30:59.106Z,25.41
2022-10-10T10:34:07.334Z,25.68
2022-10-10T10:36:46.467Z,25.48
2022-10-10T10:39:34.704Z,25.43
2022-10-10T10:42:27.858Z,25.44
2022-10-10T10:45:01.547Z,25.90
2022-10-10T10:48:07.867Z,26.11
2022-10-10T10:50:44.938Z,26.46
2022-10-10T10:53:32.015Z,26.25
2022-10-10T10:56:12.747Z,26.11
2022-10-10T11:01:58.703Z,26.11
2022-10-10T11:05:23.462Z,26.56
2022-10-10T11:07:32.050Z,26.52
2022-10-10T11:10:31.159Z,26.03
2022-10-10T11:13:25.905Z,25.31
2022-10-10T11:16:06.433Z,26.11
2022-10-10T11:18:43.919Z,25.50
2022-10-10T11:21:17.592Z,26.22
2022-10-10T11:23:50.590Z,25.99
2022-10-10T11:26:24.401Z,26.18
2022-10-10T11:29:00.643Z,26.29
2022-10-10T11:31:34.386Z,26.06
2022-10-10T11:34:14.769Z,26.39
2022-10-10T11:36:45.151Z,25.43
2022-10-10T11:39:17.086Z,25.22
2022-10-10T11:41:51.055Z,24.77
2022-10-10T11:44:43.441Z,24.87
2022-10-10T11:47:29.208Z,24.41
2022-10-10T11:50:07.067Z,24.54
2022-10-10T11:53:00.337Z,23.91
2022-10-10T11:55:40.849Z,24.11
2022-10-10T11:58:09.005Z,23.85
2022-10-10T12:00:44.745Z,23.95
2022-10-10T12:03:12.768Z,24.03
2022-10-10T12:05:47.177Z,23.71
2022-10-10T12:08:32.756Z,23.26
2022-10-10T12:11:17.136Z,23.66
2022-10-10T12:13:55.386Z,23.58
2022-10-10T12:16:30.363Z,23.59
2022-10-10T12:19:06.286Z,23.55
2022-10-10T12:22:01.570Z,23.58
2022-10-10T12:24:38.667Z,23.82
2022-10-10T12:27:16.497Z,23.43
2022-10-10T12:29:56.997Z,23.53
2022-10-10T12:32:28.036Z,22.69
2022-10-10T12:35:01.177Z,22.34
2022-10-10T12:37:31.407Z,22.06
2022-10-10T12:40:08.589Z,22.19
2022-10-10T12:42:48.881Z,21.68
2022-10-10T12:45:29.008Z,21.71
2022-10-10T12:48:05.373Z,22.04
2022-10-10T12:50:43.365Z,21.83
2022-10-10T12:53:16.312Z,21.81
2022-10-10T12:55:46.927Z,22.06
2022-10-10T12:58:27.065Z,22.30
2022-10-10T13:00:59.136Z,22.20
2022-10-10T13:03:39.266Z,22.27
2022-10-10T13:06:42.965Z,21.92
2022-10-10T13:09:16.139Z,21.76
2022-10-10T13:11:59.068Z,21.92
2022-10-10T13:14:38.595Z,21.53
2022-10-10T13:17:22.860Z,21.83
2022-10-10T13:19:51.872Z,21.91
2022-10-10T13:22:20.920Z,21.37
2022-10-10T13:24:50.089Z,21.59
2022-10-10T13:27:21.857Z,21.33
2022-10-10T13:29:50.497Z,21.62
2022-10-10T13:32:24.671Z,21.11
2022-10-10T13:34:58.535Z,21.08
2022-10-10T13:37:27.044Z,21.07
2022-10-10T13:39:55.694Z,21.04
2022-10-10T13:42:38.684Z,21.08
2022-10-10T13:45:37.674Z,21.08
2022-10-10T13:48:20.930Z,20.88
2022-10-10T13:50:53.383Z,21.08
2022-10-10T13:53:27.759Z,21.07
2022-10-10T13:56:02.290Z,20.82
2022-10-10T13:58:32.937Z,20.81
2022-10-10T14:01:03.592Z,21.09
2022-10-10T14:03:33.608Z,20.92
2022-10-10T14:06:01.523Z,20.69
2022-10-10T14:08:32.669Z,20.84
2022-10-10T14:11:04.756Z,20.69
2022-10-10T14:13:34.279Z,20.77
2022-10-10T14:16:18.033Z,20.71
2022-10-10T14:18:46.508Z,20.59
2022-10-10T14:21:14.804Z,20.49
2022-10-10T14:23:42.734Z,20.42
2022-10-10T14:26:14.413Z,20.59
2022-10-10T14:28:43.206Z,20.05
2022-10-10T14:31:11.594Z,20.17
2022-10-10T14:33:39.853Z,20.25
2022-10-10T14:36:08.481Z,19.83
2022-10-10T14:38:36.357Z,19.70
2022-10-10T14:41:05.460Z,19.85
2022-10-10T14:43:34.607Z,19.96
2022-10-10T14:46:02.594Z,19.73
2022-10-10T14:48:30.657Z,19.82
2022-10-10T14:50:58.888Z,19.44
2022-10-10T14:53:26.934Z,19.41
2022-10-10T14:55:56.406Z,19.51
2022-10-10T14:58:24.836Z,19.68
2022-10-10T15:00:53.379Z,19.57
2022-10-10T15:03:22.051Z,19.46
2022-10-10T15:05:51.049Z,19.03
2022-10-10T15:08:19.392Z,19.09
2022-10-10T15:10:48.259Z,19.16
2022-10-10T15:13:17.027Z,19.20
2022-10-10T15:15:47.114Z,19.23
2022-10-10T15:18:39.631Z,19.22
2022-10-10T15:21:09.535Z,18.49
2022-10-10T15:23:38.325Z,18.62
2022-10-10T15:26:07.338Z,18.85
2022-10-10T15:28:35.251Z,18.18
2022-10-10T15:31:03.943Z,18.09
2022-10-10T15:33:32.500Z,18.05
2022-10-10T15:36:11.495Z,18.24
2022-10-10T15:38:41.275Z,18.22
2022-10-10T15:41:10.252Z,18.24
2022-10-10T15:43:54.790Z,17.97
2022-10-10T15:46:25.639Z,18.41
2022-10-10T15:48:54.826Z,17.71
2022-10-10T15:51:23.124Z,18.08
2022-10-10T15:53:52.384Z,17.87
2022-10-10T15:56:20.266Z,17.95
2022-10-10T15:58:49.533Z,17.59
2022-10-10T16:01:19.597Z,17.32
2022-10-10T16:03:49.626Z,17.48
2022-10-10T16:06:19.679Z,17.49
2022-10-10T16:08:55.831Z,17.81
2022-10-10T16:11:37.689Z,17.34
2022-10-10T16:14:06.006Z,17.71
2022-10-10T16:16:34.000Z,17.35
2022-10-10T16:19:01.815Z,17.63
2022-10-10T16:21:30.777Z,17.50
2022-10-10T16:23:59.547Z,17.58
2022-10-10T16:26:32.219Z,17.65
2022-10-10T16:29:01.698Z,16.95
2022-10-10T16:31:29.935Z,17.13
2022-10-10T16:33:59.079Z,17.10
2022-10-10T16:36:30.570Z,16.94
2022-10-10T16:38:59.424Z,16.95
2022-10-10T16:41:48.726Z,16.72
2022-10-10T16:44:18.092Z,17.09
2022-10-10T16:46:46.469Z,16.62
2022-10-10T16:49:16.873Z,16.82
2022-10-10T16:51:44.987Z,16.73
2022-10-10T16:54:13.177Z,17.02
2022-10-10T16:56:42.225Z,16.95
2022-10-10T16:59:10.216Z,17.19
2022-10-10T17:01:38.506Z,17.00
2022-10-10T17:04:06.987Z,16.78
2022-10-10T17:06:38.020Z,16.99
2022-10-10T17:09:08.453Z,17.00
2022-10-10T17:11:36.634Z,16.59
2022-10-10T17:14:05.197Z,16.89
2022-10-10T17:17:07.048Z,16.83
2022-10-10T17:19:21.445Z,16.82
2022-10-10T17:21:49.726Z,16.77
2022-10-10T17:24:17.936Z,16.97
2022-10-10T17:26:45.786Z,16.80
2022-10-10T17:29:14.654Z,16.55
2022-10-10T17:31:42.943Z,16.77
2022-10-10T17:34:11.208Z,17.00
2022-10-10T17:36:39.394Z,16.84
2022-10-10T17:39:07.874Z,16.54
2022-10-10T17:41:36.776Z,16.49
2022-10-10T17:44:06.074Z,15.81
2022-10-10T17:46:36.639Z,15.75
2022-10-10T17:49:08.175Z,15.49
2022-10-10T17:51:36.706Z,15.59
2022-10-10T17:54:06.257Z,15.48
2022-10-10T17:56:34.998Z,15.87
2022-10-10T17:59:06.613Z,15.85
2022-10-10T18:01:37.955Z,15.49
2022-10-10T18:04:07.316Z,15.53
2022-10-10T18:06:41.087Z,15.50
2022-10-10T18:09:12.717Z,15.71
2022-10-10T18:11:40.876Z,15.38
2022-10-10T18:14:09.347Z,14.65
2022-10-10T18:16:37.475Z,15.24
2022-10-10T18:19:07.834Z,15.09
2022-10-10T18:21:36.298Z,14.74
2022-10-10T18:24:05.203Z,15.15
2022-10-10T18:26:35.140Z,14.74
2022-10-10T18:29:03.704Z,14.93
2022-10-10T18:31:33.950Z,14.95
2022-10-10T18:34:02.769Z,15.00
2022-10-10T18:36:34.514Z,14.76
2022-10-10T18:39:06.088Z,14.65
2022-10-10T18:41:34.795Z,14.51
2022-10-10T18:44:05.061Z,14.43
2022-10-10T18:46:33.726Z,13.97
2022-10-10T18:49:04.906Z,14.09
2022-10-10T18:51:33.557Z,14.03
2022-10-10T18:54:08.094Z,14.05
2022-10-10T18:56:38.984Z,13.99
2022-10-10T18:59:15.717Z,13.57
2022-10-10T19:01:46.038Z,13.79
2022-10-10T19:04:15.551Z,13.50
2022-10-10T19:06:44.578Z,13.50
2022-10-10T19:09:15.685Z,13.71
2022-10-10T19:11:47.136Z,13.65
2022-10-10T19:14:17.485Z,13.55
2022-10-10T19:16:48.815Z,13.45
2022-10-10T19:19:18.705Z,13.60
2022-10-10T19:21:48.724Z,13.73
2022-10-10T19:24:21.691Z,13.58
2022-10-10T19:26:56.983Z,13.59
2022-10-10T19:29:26.544Z,13.48
2022-10-10T19:31:56.161Z,13.57
2022-10-10T19:34:24.524Z,13.99
2022-10-10T19:36:52.583Z,14.09
2022-10-10T19:39:21.545Z,13.92
2022-10-10T19:41:49.813Z,14.37
2022-10-10T19:44:17.724Z,13.98
2022-10-10T19:46:46.085Z,14.04
2022-10-10T19:49:13.897Z,14.09
2022-10-10T19:51:41.855Z,14.69
2022-10-10T19:54:10.256Z,14.40
2022-10-10T19:56:38.297Z,14.64
2022-10-10T19:59:06.466Z,14.29
2022-10-10T20:01:35.740Z,13.95
2022-10-10T20:04:03.946Z,14.05
2022-10-10T20:06:31.963Z,13.98
2022-10-10T20:08:59.908Z,13.75
2022-10-10T20:11:28.112Z,13.88
2022-10-10T20:13:56.220Z,13.69
2022-10-10T20:16:26.755Z,13.54
2022-10-10T20:18:57.274Z,13.19
2022-10-10T20:21:31.756Z,12.92
2022-10-10T20:24:09.225Z,13.20
2022-10-10T20:26:38.179Z,13.39
2022-10-10T20:29:07.686Z,13.57
2022-10-10T20:31:37.037Z,13.35
2022-10-10T20:34:06.216Z,13.15
2022-10-10T20:36:36.355Z,13.01
2022-10-10T20:39:08.452Z,12.99
2022-10-10T20:41:38.635Z,12.82
2022-10-10T20:44:08.335Z,12.75
2022-10-10T20:46:39.139Z,12.69
2022-10-10T20:49:11.997Z,12.63
2022-10-10T20:51:40.309Z,12.67
2022-10-10T20:54:08.524Z,12.11
2022-10-10T20:56:36.223Z,12.28
2022-10-10T20:59:04.626Z,12.67
2022-10-10T21:01:32.468Z,13.08
2022-10-10T21:04:01.134Z,12.89
2022-10-10T21:06:33.557Z,13.00
2022-10-10T21:09:05.037Z,13.04
2022-10-10T21:11:33.776Z,12.89
2022-10-10T21:14:02.539Z,13.20
2022-10-10T21:16:36.206Z,13.01
2022-10-10T21:19:06.643Z,13.56
2022-10-10T21:21:35.585Z,13.24
2022-10-10T21:24:05.373Z,13.21
2022-10-10T21:26:33.894Z,13.71
2022-10-10T21:29:01.743Z,13.78
2022-10-10T21:31:35.205Z,13.77
2022-10-10T21:34:05.337Z,13.72
2022-10-10T21:36:35.068Z,13.30
2022-10-10T21:39:06.787Z,12.88
2022-10-10T21:41:35.258Z,13.19
2022-10-10T21:44:03.705Z,12.97
2022-10-10T21:46:37.077Z,13.00
2022-10-10T21:49:07.935Z,13.26
2022-10-10T21:51:38.572Z,13.67
2022-10-10T21:54:07.235Z,13.57
2022-10-10T21:56:35.267Z,13.39
2022-10-10T21:59:03.229Z,13.41
2022-10-10T22:01:34.215Z,13.58
2022-10-10T22:04:02.972Z,13.44
2022-10-10T22:06:31.716Z,13.61
2022-10-10T22:09:00.856Z,13.75
2022-10-10T22:11:30.744Z,13.64
2022-10-10T22:13:58.944Z,13.13
2022-10-10T22:16:41.979Z,13.46
2022-10-10T22:19:10.568Z,13.62
2022-10-10T22:21:38.479Z,13.79
2022-10-10T22:24:11.129Z,13.80
2022-10-10T22:31:32.240Z,13.68
2022-10-10T22:34:00.393Z,13.59
2022-10-10T22:36:28.351Z,13.46
2022-10-10T22:38:56.333Z,13.42
2022-10-10T22:41:24.447Z,13.20
2022-10-10T22:43:52.435Z,13.36
2022-10-10T22:46:20.285Z,14.02
2022-10-10T22:48:48.394Z,14.09
2022-10-10T22:51:17.746Z,14.21
2022-10-10T22:53:46.496Z,13.60
2022-10-10T22:56:19.425Z,13.41
2022-10-10T22:58:50.055Z,13.69
2022-10-10T23:01:21.442Z,13.98
2022-10-10T23:03:49.273Z,13.67
2022-10-10T23:06:17.185Z,14.30
2022-10-10T23:08:45.725Z,13.81
2022-10-10T23:11:13.626Z,13.98
2022-10-10T23:13:41.584Z,14.49
2022-10-10T23:16:11.027Z,14.40
2022-10-10T23:18:38.825Z,14.59
2022-10-10T23:21:06.604Z,14.27
2022-10-10T23:23:34.703Z,14.49
2022-10-10T23:26:07.596Z,14.48
2022-10-10T23:28:36.911Z,13.79
2022-10-10T23:31:07.087Z,13.50
2022-10-10T23:33:37.113Z,13.90
2022-10-10T23:36:08.628Z,13.48
2022-10-10T23:38:37.105Z,13.86
2022-10-10T23:41:05.273Z,13.73
2022-10-10T23:43:33.173Z,14.25
2022-10-10T23:46:01.136Z,13.84
2022-10-10T23:48:29.671Z,14.06
2022-10-10T23:50:57.402Z,14.30
2022-10-10T23:53:25.153Z,14.21
2022-10-10T23:55:53.215Z,13.94
2022-10-10T23:58:21.159Z,13.28
